sensor_id;sensor_type;location;lat;lon;timestamp;pressure;altitude;pressure_sealevel;temperature;humidity
84316;BME280;74496;52.236;5.164;2024-02-21T00:01:22;102083.41;;;10.89;76.45
84316;BME280;74496;52.236;5.164;2024-02-21T00:03:48;102086.03;;;11.01;76.54
84316;BME280;74496;52.236;5.164;2024-02-21T00:06:15;102078.94;;;11.02;76.23
84316;BME280;74496;52.236;5.164;2024-02-21T00:08:42;102081.28;;;11.07;75.65
84316;BME280;74496;52.236;5.164;2024-02-21T00:11:10;102077.56;;;11.09;75.84
84316;BME280;74496;52.236;5.164;2024-02-21T00:13:37;102082.84;;;11.09;75.81
84316;BME280;74496;52.236;5.164;2024-02-21T00:16:04;102077.88;;;11.04;76.10
84316;BME280;74496;52.236;5.164;2024-02-21T00:18:31;102065.31;;;11.08;76.00
84316;BME280;74496;52.236;5.164;2024-02-21T00:20:57;102071.94;;;11.14;75.83
84316;BME280;74496;52.236;5.164;2024-02-21T00:23:24;102073.72;;;11.26;75.33
84316;BME280;74496;52.236;5.164;2024-02-21T00:25:51;102078.84;;;11.03;76.51
84316;BME280;74496;52.236;5.164;2024-02-21T00:28:19;102062.22;;;11.14;76.01
84316;BME280;74496;52.236;5.164;2024-02-21T00:30:46;102078.94;;;11.02;76.39
84316;BME280;74496;52.236;5.164;2024-02-21T00:33:16;102082.28;;;11.17;75.80
84316;BME280;74496;52.236;5.164;2024-02-21T00:35:42;102084.59;;;11.21;76.06
84316;BME280;74496;52.236;5.164;2024-02-21T00:38:09;102079.00;;;11.26;75.87
84316;BME280;74496;52.236;5.164;2024-02-21T00:40:36;102073.78;;;11.00;76.69
84316;BME280;74496;52.236;5.164;2024-02-21T00:43:03;102071.72;;;11.17;76.38
84316;BME280;74496;52.236;5.164;2024-02-21T00:45:31;102062.75;;;11.19;76.04
84316;BME280;74496;52.236;5.164;2024-02-21T00:47:58;102054.31;;;11.14;76.19
84316;BME280;74496;52.236;5.164;2024-02-21T00:50:25;102051.97;;;11.22;75.75
84316;BME280;74496;52.236;5.164;2024-02-21T00:52:51;102051.75;;;11.25;75.79
84316;BME280;74496;52.236;5.164;2024-02-21T00:55:18;102056.28;;;11.23;75.88
84316;BME280;74496;52.236;5.164;2024-02-21T00:57:45;102056.16;;;11.25;75.58
84316;BME280;74496;52.236;5.164;2024-02-21T01:00:12;102072.13;;;11.23;75.70
84316;BME280;74496;52.236;5.164;2024-02-21T01:02:40;102055.97;;;11.15;76.14
84316;BME280;74496;52.236;5.164;2024-02-21T01:05:07;102053.41;;;11.02;76.38
84316;BME280;74496;52.236;5.164;2024-02-21T01:07:34;102069.44;;;11.12;76.40
84316;BME280;74496;52.236;5.164;2024-02-21T01:10:01;102061.13;;;11.06;76.76
84316;BME280;74496;52.236;5.164;2024-02-21T01:12:28;102049.19;;;11.00;76.84
84316;BME280;74496;52.236;5.164;2024-02-21T01:14:54;102040.81;;;11.06;76.65
84316;BME280;74496;52.236;5.164;2024-02-21T01:17:21;102048.53;;;11.09;76.54
84316;BME280;74496;52.236;5.164;2024-02-21T01:19:49;102045.16;;;11.07;76.69
84316;BME280;74496;52.236;5.164;2024-02-21T01:22:16;102035.88;;;11.01;76.87
84316;BME280;74496;52.236;5.164;2024-02-21T01:24:43;102034.38;;;11.10;76.69
84316;BME280;74496;52.236;5.164;2024-02-21T01:27:09;102018.78;;;11.18;76.50
84316;BME280;74496;52.236;5.164;2024-02-21T01:29:37;102020.94;;;11.13;76.60
84316;BME280;74496;52.236;5.164;2024-02-21T01:32:04;102023.06;;;11.08;76.82
84316;BME280;74496;52.236;5.164;2024-02-21T01:34:31;102021.03;;;11.12;76.74
84316;BME280;74496;52.236;5.164;2024-02-21T01:36:59;102010.59;;;11.10;76.57
84316;BME280;74496;52.236;5.164;2024-02-21T01:39:29;102009.03;;;11.08;76.65
84316;BME280;74496;52.236;5.164;2024-02-21T01:41:56;101997.16;;;11.13;76.50
84316;BME280;74496;52.236;5.164;2024-02-21T01:44:23;101988.63;;;11.10;76.78
84316;BME280;74496;52.236;5.164;2024-02-21T01:46:50;101987.97;;;11.19;76.42
84316;BME280;74496;52.236;5.164;2024-02-21T01:49:18;101989.47;;;11.10;76.83
84316;BME280;74496;52.236;5.164;2024-02-21T01:51:45;101997.63;;;11.07;76.81
84316;BME280;74496;52.236;5.164;2024-02-21T01:54:15;101989.25;;;11.13;77.11
84316;BME280;74496;52.236;5.164;2024-02-21T01:56:42;101987.19;;;11.06;76.75
84316;BME280;74496;52.236;5.164;2024-02-21T01:59:09;101987.56;;;11.12;77.04
84316;BME280;74496;52.236;5.164;2024-02-21T02:01:36;101982.38;;;11.11;76.78
84316;BME280;74496;52.236;5.164;2024-02-21T02:04:04;101983.50;;;10.95;77.46
84316;BME280;74496;52.236;5.164;2024-02-21T02:06:31;101988.94;;;11.05;77.15
84316;BME280;74496;52.236;5.164;2024-02-21T02:08:58;101987.09;;;11.18;76.71
84316;BME280;74496;52.236;5.164;2024-02-21T02:11:26;101978.56;;;11.15;77.22
84316;BME280;74496;52.236;5.164;2024-02-21T02:13:52;101976.13;;;11.12;77.14
84316;BME280;74496;52.236;5.164;2024-02-21T02:16:19;101975.47;;;11.21;76.52
84316;BME280;74496;52.236;5.164;2024-02-21T02:18:46;101965.19;;;11.29;76.22
84316;BME280;74496;52.236;5.164;2024-02-21T02:21:16;101962.41;;;11.31;76.39
84316;BME280;74496;52.236;5.164;2024-02-21T02:23:51;101962.94;;;11.36;76.24
84316;BME280;74496;52.236;5.164;2024-02-21T02:26:17;101978.00;;;11.22;76.55
84316;BME280;74496;52.236;5.164;2024-02-21T02:34:10;101963.56;;;11.15;77.00
84316;BME280;74496;52.236;5.164;2024-02-21T02:36:37;101947.16;;;11.23;76.54
84316;BME280;74496;52.236;5.164;2024-02-21T02:39:05;101958.03;;;11.18;76.89
84316;BME280;74496;52.236;5.164;2024-02-21T02:41:34;101957.09;;;11.19;76.50
84316;BME280;74496;52.236;5.164;2024-02-21T02:44:01;101951.47;;;11.24;76.39
84316;BME280;74496;52.236;5.164;2024-02-21T02:46:28;101949.28;;;11.18;76.90
84316;BME280;74496;52.236;5.164;2024-02-21T02:48:54;101941.66;;;11.26;76.65
84316;BME280;74496;52.236;5.164;2024-02-21T02:51:21;101942.69;;;11.12;77.07
84316;BME280;74496;52.236;5.164;2024-02-21T02:53:48;101932.59;;;11.17;76.79
84316;BME280;74496;52.236;5.164;2024-02-21T02:56:16;101938.25;;;11.24;76.68
84316;BME280;74496;52.236;5.164;2024-02-21T02:58:42;101931.78;;;11.28;76.52
84316;BME280;74496;52.236;5.164;2024-02-21T03:01:09;101926.03;;;11.23;76.78
84316;BME280;74496;52.236;5.164;2024-02-21T03:03:36;101934.06;;;11.21;76.93
84316;BME280;74496;52.236;5.164;2024-02-21T03:06:03;101932.63;;;11.28;76.63
84316;BME280;74496;52.236;5.164;2024-02-21T03:08:30;101919.41;;;11.28;76.60
84316;BME280;74496;52.236;5.164;2024-02-21T03:10:58;101912.47;;;11.27;76.82
84316;BME280;74496;52.236;5.164;2024-02-21T03:13:26;101911.66;;;11.38;76.33
84316;BME280;74496;52.236;5.164;2024-02-21T03:15:52;101917.22;;;11.11;77.32
84316;BME280;74496;52.236;5.164;2024-02-21T03:18:19;101918.94;;;11.23;76.84
84316;BME280;74496;52.236;5.164;2024-02-21T03:20:46;101890.84;;;11.22;76.89
84316;BME280;74496;52.236;5.164;2024-02-21T03:23:13;101892.84;;;11.08;77.36
84316;BME280;74496;52.236;5.164;2024-02-21T03:25:39;101884.63;;;11.23;76.58
84316;BME280;74496;52.236;5.164;2024-02-21T03:28:06;101882.56;;;11.27;76.62
84316;BME280;74496;52.236;5.164;2024-02-21T03:30:34;101879.69;;;11.19;76.64
84316;BME280;74496;52.236;5.164;2024-02-21T03:33:02;101873.44;;;11.20;76.61
84316;BME280;74496;52.236;5.164;2024-02-21T03:41:37;101865.09;;;11.02;77.20
84316;BME280;74496;52.236;5.164;2024-02-21T03:44:04;101856.63;;;11.10;77.01
84316;BME280;74496;52.236;5.164;2024-02-21T03:46:32;101856.72;;;11.08;77.14
84316;BME280;74496;52.236;5.164;2024-02-21T03:48:58;101863.78;;;11.08;77.02
84316;BME280;74496;52.236;5.164;2024-02-21T03:51:26;101871.84;;;11.06;77.17
84316;BME280;74496;52.236;5.164;2024-02-21T03:53:52;101857.09;;;11.15;76.84
84316;BME280;74496;52.236;5.164;2024-02-21T03:56:19;101857.13;;;11.26;76.43
84316;BME280;74496;52.236;5.164;2024-02-21T03:58:46;101853.38;;;11.17;76.44
84316;BME280;74496;52.236;5.164;2024-02-21T04:01:15;101852.63;;;11.15;76.61
84316;BME280;74496;52.236;5.164;2024-02-21T04:03:44;101850.50;;;11.09;76.84
84316;BME280;74496;52.236;5.164;2024-02-21T04:06:10;101844.84;;;11.02;76.84
84316;BME280;74496;52.236;5.164;2024-02-21T04:08:37;101850.25;;;11.12;76.93
84316;BME280;74496;52.236;5.164;2024-02-21T04:11:04;101853.00;;;11.11;76.69
84316;BME280;74496;52.236;5.164;2024-02-21T04:13:30;101832.91;;;11.32;75.69
84316;BME280;74496;52.236;5.164;2024-02-21T04:15:57;101831.56;;;11.26;76.02
84316;BME280;74496;52.236;5.164;2024-02-21T04:18:24;101835.41;;;11.22;76.16
84316;BME280;74496;52.236;5.164;2024-02-21T04:20:52;101834.59;;;10.98;76.71
84316;BME280;74496;52.236;5.164;2024-02-21T04:23:18;101836.19;;;11.12;76.22
84316;BME280;74496;52.236;5.164;2024-02-21T04:25:45;101831.50;;;11.15;75.87
84316;BME280;74496;52.236;5.164;2024-02-21T04:28:12;101832.25;;;11.17;76.07
84316;BME280;74496;52.236;5.164;2024-02-21T04:30:38;101829.47;;;11.08;76.35
84316;BME280;74496;52.236;5.164;2024-02-21T04:33:05;101831.16;;;11.09;76.58
84316;BME280;74496;52.236;5.164;2024-02-21T04:35:32;101839.28;;;10.94;77.09
84316;BME280;74496;52.236;5.164;2024-02-21T04:38:00;101835.41;;;10.87;77.18
84316;BME280;74496;52.236;5.164;2024-02-21T04:40:26;101827.97;;;10.92;77.17
84316;BME280;74496;52.236;5.164;2024-02-21T04:42:54;101826.22;;;10.93;76.92
84316;BME280;74496;52.236;5.164;2024-02-21T04:45:20;101821.75;;;10.93;76.47
84316;BME280;74496;52.236;5.164;2024-02-21T04:47:47;101815.28;;;10.97;76.76
84316;BME280;74496;52.236;5.164;2024-02-21T04:50:14;101814.78;;;10.92;76.55
84316;BME280;74496;52.236;5.164;2024-02-21T04:52:41;101815.94;;;11.12;75.73
84316;BME280;74496;52.236;5.164;2024-02-21T04:55:09;101809.31;;;11.07;75.97
84316;BME280;74496;52.236;5.164;2024-02-21T04:57:35;101801.63;;;11.03;75.94
84316;BME280;74496;52.236;5.164;2024-02-21T05:00:03;101810.03;;;11.09;75.72
84316;BME280;74496;52.236;5.164;2024-02-21T05:02:30;101810.50;;;11.02;76.31
84316;BME280;74496;52.236;5.164;2024-02-21T05:04:56;101802.69;;;10.90;76.21
84316;BME280;74496;52.236;5.164;2024-02-21T05:07:23;101806.53;;;10.97;76.09
84316;BME280;74496;52.236;5.164;2024-02-21T05:09:50;101803.06;;;10.96;76.11
84316;BME280;74496;52.236;5.164;2024-02-21T05:12:18;101794.25;;;10.85;76.56
84316;BME280;74496;52.236;5.164;2024-02-21T05:14:47;101788.38;;;10.92;76.32
84316;BME280;74496;52.236;5.164;2024-02-21T05:17:15;101789.06;;;10.72;76.78
84316;BME280;74496;52.236;5.164;2024-02-21T05:19:41;101783.25;;;10.91;75.89
84316;BME280;74496;52.236;5.164;2024-02-21T05:22:08;101787.91;;;10.87;76.11
84316;BME280;74496;52.236;5.164;2024-02-21T05:24:35;101785.63;;;10.83;76.48
84316;BME280;74496;52.236;5.164;2024-02-21T05:27:02;101778.78;;;10.91;76.11
84316;BME280;74496;52.236;5.164;2024-02-21T05:29:30;101768.19;;;10.69;76.94
84316;BME280;74496;52.236;5.164;2024-02-21T05:31:56;101763.41;;;10.74;76.78
84316;BME280;74496;52.236;5.164;2024-02-21T05:34:24;101752.72;;;10.75;76.79
84316;BME280;74496;52.236;5.164;2024-02-21T05:36:50;101754.53;;;10.75;76.42
84316;BME280;74496;52.236;5.164;2024-02-21T05:39:18;101744.94;;;10.74;76.56
84316;BME280;74496;52.236;5.164;2024-02-21T05:41:45;101749.09;;;10.65;77.44
84316;BME280;74496;52.236;5.164;2024-02-21T05:44:12;101734.97;;;10.77;76.43
84316;BME280;74496;52.236;5.164;2024-02-21T05:46:40;101729.19;;;10.72;76.79
84316;BME280;74496;52.236;5.164;2024-02-21T05:49:06;101721.78;;;10.77;76.47
84316;BME280;74496;52.236;5.164;2024-02-21T05:51:33;101717.94;;;10.82;76.36
84316;BME280;74496;52.236;5.164;2024-02-21T05:54:00;101714.69;;;10.67;76.49
84316;BME280;74496;52.236;5.164;2024-02-21T05:56:26;101717.00;;;10.83;76.22
84316;BME280;74496;52.236;5.164;2024-02-21T05:58:53;101710.97;;;10.69;76.89
84316;BME280;74496;52.236;5.164;2024-02-21T06:01:20;101718.41;;;10.75;76.62
84316;BME280;74496;52.236;5.164;2024-02-21T06:03:48;101719.25;;;10.65;76.86
84316;BME280;74496;52.236;5.164;2024-02-21T06:06:15;101702.34;;;10.67;76.93
84316;BME280;74496;52.236;5.164;2024-02-21T06:08:42;101712.19;;;10.76;76.97
84316;BME280;74496;52.236;5.164;2024-02-21T06:11:09;101714.09;;;10.86;76.13
84316;BME280;74496;52.236;5.164;2024-02-21T06:13:38;101711.00;;;10.80;76.49
84316;BME280;74496;52.236;5.164;2024-02-21T06:16:06;101703.56;;;10.74;76.07
84316;BME280;74496;52.236;5.164;2024-02-21T06:18:35;101703.78;;;10.60;77.03
84316;BME280;74496;52.236;5.164;2024-02-21T06:21:07;101705.94;;;10.66;76.95
84316;BME280;74496;52.236;5.164;2024-02-21T06:23:33;101699.47;;;10.70;76.88
84316;BME280;74496;52.236;5.164;2024-02-21T06:26:00;101711.38;;;10.76;76.44
84316;BME280;74496;52.236;5.164;2024-02-21T06:28:27;101719.47;;;10.62;77.25
84316;BME280;74496;52.236;5.164;2024-02-21T06:30:54;101721.03;;;10.64;77.16
84316;BME280;74496;52.236;5.164;2024-02-21T06:33:20;101728.50;;;10.82;76.42
84316;BME280;74496;52.236;5.164;2024-02-21T06:35:50;101722.03;;;10.86;76.14
84316;BME280;74496;52.236;5.164;2024-02-21T06:38:19;101723.38;;;10.91;76.24
84316;BME280;74496;52.236;5.164;2024-02-21T06:40:46;101711.22;;;10.89;76.11
84316;BME280;74496;52.236;5.164;2024-02-21T06:43:18;101718.91;;;10.92;76.04
84316;BME280;74496;52.236;5.164;2024-02-21T06:45:45;101717.47;;;10.76;76.48
84316;BME280;74496;52.236;5.164;2024-02-21T06:48:16;101709.19;;;10.70;77.04
84316;BME280;74496;52.236;5.164;2024-02-21T06:50:43;101702.94;;;10.82;76.22
84316;BME280;74496;52.236;5.164;2024-02-21T06:53:10;101699.72;;;10.78;76.35
84316;BME280;74496;52.236;5.164;2024-02-21T06:55:38;101699.00;;;10.76;76.47
84316;BME280;74496;52.236;5.164;2024-02-21T06:58:05;101694.78;;;10.74;76.59
84316;BME280;74496;52.236;5.164;2024-02-21T07:00:33;101692.53;;;10.80;76.40
84316;BME280;74496;52.236;5.164;2024-02-21T07:03:00;101688.91;;;10.70;77.15
84316;BME280;74496;52.236;5.164;2024-02-21T07:05:28;101686.03;;;10.73;76.85
84316;BME280;74496;52.236;5.164;2024-02-21T07:07:54;101681.00;;;10.82;76.17
84316;BME280;74496;52.236;5.164;2024-02-21T07:10:21;101685.44;;;10.92;75.94
84316;BME280;74496;52.236;5.164;2024-02-21T07:12:49;101680.03;;;10.71;76.68
84316;BME280;74496;52.236;5.164;2024-02-21T07:15:18;101682.94;;;10.79;76.05
84316;BME280;74496;52.236;5.164;2024-02-21T07:17:45;101681.09;;;10.69;76.23
84316;BME280;74496;52.236;5.164;2024-02-21T07:20:12;101678.31;;;10.59;76.19
84316;BME280;74496;52.236;5.164;2024-02-21T07:22:39;101673.09;;;10.93;75.37
84316;BME280;74496;52.236;5.164;2024-02-21T07:25:06;101667.81;;;10.70;76.04
84316;BME280;74496;52.236;5.164;2024-02-21T07:27:33;101673.91;;;10.71;76.26
84316;BME280;74496;52.236;5.164;2024-02-21T07:30:01;101662.19;;;10.97;74.64
84316;BME280;74496;52.236;5.164;2024-02-21T07:32:27;101665.63;;;10.75;75.87
84316;BME280;74496;52.236;5.164;2024-02-21T07:34:55;101659.38;;;10.65;76.18
84316;BME280;74496;52.236;5.164;2024-02-21T07:37:22;101653.41;;;10.63;75.95
84316;BME280;74496;52.236;5.164;2024-02-21T07:39:48;101641.16;;;10.62;76.52
84316;BME280;74496;52.236;5.164;2024-02-21T07:42:15;101635.53;;;11.00;74.91
84316;BME280;74496;52.236;5.164;2024-02-21T07:44:42;101631.22;;;10.77;75.18
84316;BME280;74496;52.236;5.164;2024-02-21T07:47:10;101623.06;;;10.80;75.13
84316;BME280;74496;52.236;5.164;2024-02-21T07:49:41;101618.00;;;10.66;76.22
84316;BME280;74496;52.236;5.164;2024-02-21T07:52:08;101616.47;;;10.63;76.47
84316;BME280;74496;52.236;5.164;2024-02-21T07:54:35;101617.91;;;10.67;76.44
84316;BME280;74496;52.236;5.164;2024-02-21T07:57:02;101613.59;;;10.66;76.44
84316;BME280;74496;52.236;5.164;2024-02-21T07:59:29;101618.13;;;10.75;75.88
84316;BME280;74496;52.236;5.164;2024-02-21T08:01:56;101615.63;;;10.85;75.80
84316;BME280;74496;52.236;5.164;2024-02-21T08:04:24;101617.19;;;10.76;76.15
84316;BME280;74496;52.236;5.164;2024-02-21T08:06:52;101613.97;;;10.73;75.62
84316;BME280;74496;52.236;5.164;2024-02-21T08:09:21;101609.25;;;10.65;76.55
84316;BME280;74496;52.236;5.164;2024-02-21T08:11:49;101608.66;;;10.62;76.76
84316;BME280;74496;52.236;5.164;2024-02-21T08:14:15;101615.16;;;10.80;75.33
84316;BME280;74496;52.236;5.164;2024-02-21T08:16:42;101599.06;;;10.72;75.79
84316;BME280;74496;52.236;5.164;2024-02-21T08:19:10;101611.44;;;10.60;76.70
84316;BME280;74496;52.236;5.164;2024-02-21T08:21:38;101609.72;;;10.59;76.16
84316;BME280;74496;52.236;5.164;2024-02-21T08:24:05;101591.88;;;10.74;75.92
84316;BME280;74496;52.236;5.164;2024-02-21T08:26:31;101595.00;;;10.56;76.48
84316;BME280;74496;52.236;5.164;2024-02-21T08:28:58;101584.69;;;10.87;75.11
84316;BME280;74496;52.236;5.164;2024-02-21T08:31:26;101578.56;;;10.75;75.87
84316;BME280;74496;52.236;5.164;2024-02-21T08:33:57;101581.19;;;10.64;76.72
84316;BME280;74496;52.236;5.164;2024-02-21T08:36:28;101564.88;;;10.59;75.78
84316;BME280;74496;52.236;5.164;2024-02-21T08:38:56;101574.25;;;10.63;76.45
84316;BME280;74496;52.236;5.164;2024-02-21T08:41:23;101566.09;;;10.77;76.10
84316;BME280;74496;52.236;5.164;2024-02-21T08:43:50;101554.22;;;10.83;75.73
84316;BME280;74496;52.236;5.164;2024-02-21T08:46:17;101548.81;;;10.85;75.35
84316;BME280;74496;52.236;5.164;2024-02-21T08:48:44;101554.09;;;10.73;75.59
84316;BME280;74496;52.236;5.164;2024-02-21T08:51:12;101554.56;;;10.90;74.86
84316;BME280;74496;52.236;5.164;2024-02-21T08:53:38;101559.13;;;10.88;74.92
84316;BME280;74496;52.236;5.164;2024-02-21T08:56:07;101553.72;;;10.89;75.44
84316;BME280;74496;52.236;5.164;2024-02-21T08:58:34;101551.81;;;10.57;75.56
84316;BME280;74496;52.236;5.164;2024-02-21T09:01:02;101549.88;;;10.82;75.48
84316;BME280;74496;52.236;5.164;2024-02-21T09:03:31;101550.97;;;10.79;75.18
84316;BME280;74496;52.236;5.164;2024-02-21T09:05:58;101550.00;;;10.69;75.92
84316;BME280;74496;52.236;5.164;2024-02-21T09:08:24;101532.25;;;10.71;75.63
84316;BME280;74496;52.236;5.164;2024-02-21T09:10:51;101533.22;;;10.93;75.13
84316;BME280;74496;52.236;5.164;2024-02-21T09:13:19;101535.59;;;10.96;74.71
84316;BME280;74496;52.236;5.164;2024-02-21T09:15:47;101527.44;;;10.88;75.25
84316;BME280;74496;52.236;5.164;2024-02-21T09:18:13;101523.25;;;10.96;74.66
84316;BME280;74496;52.236;5.164;2024-02-21T09:20:40;101513.72;;;11.05;74.75
84316;BME280;74496;52.236;5.164;2024-02-21T09:23:07;101520.34;;;10.99;74.94
84316;BME280;74496;52.236;5.164;2024-02-21T09:25:34;101501.75;;;11.01;75.01
84316;BME280;74496;52.236;5.164;2024-02-21T09:28:01;101507.84;;;11.13;73.74
84316;BME280;74496;52.236;5.164;2024-02-21T09:30:30;101497.78;;;11.07;74.03
84316;BME280;74496;52.236;5.164;2024-02-21T09:32:57;101491.91;;;11.03;73.94
84316;BME280;74496;52.236;5.164;2024-02-21T09:35:25;101488.25;;;10.83;74.35
84316;BME280;74496;52.236;5.164;2024-02-21T09:37:53;101489.88;;;10.95;74.45
84316;BME280;74496;52.236;5.164;2024-02-21T09:40:20;101474.00;;;11.07;73.66
84316;BME280;74496;52.236;5.164;2024-02-21T09:42:47;101474.13;;;11.05;73.27
84316;BME280;74496;52.236;5.164;2024-02-21T09:45:19;101466.66;;;10.78;74.32
84316;BME280;74496;52.236;5.164;2024-02-21T09:48:02;101460.84;;;10.95;74.25
84316;BME280;74496;52.236;5.164;2024-02-21T09:50:34;101442.59;;;10.92;73.93
84316;BME280;74496;52.236;5.164;2024-02-21T09:53:02;101439.22;;;11.01;73.48
84316;BME280;74496;52.236;5.164;2024-02-21T09:55:33;101430.34;;;11.02;72.95
84316;BME280;74496;52.236;5.164;2024-02-21T09:58:01;101427.72;;;11.02;73.24
84316;BME280;74496;52.236;5.164;2024-02-21T10:00:28;101412.91;;;11.11;73.20
84316;BME280;74496;52.236;5.164;2024-02-21T10:02:58;101405.31;;;11.18;72.57
84316;BME280;74496;52.236;5.164;2024-02-21T10:05:24;101398.75;;;11.12;73.08
84316;BME280;74496;52.236;5.164;2024-02-21T10:07:52;101403.91;;;11.14;73.05
84316;BME280;74496;52.236;5.164;2024-02-21T10:10:20;101396.78;;;11.25;72.36
84316;BME280;74496;52.236;5.164;2024-02-21T10:12:48;101400.16;;;11.16;72.02
84316;BME280;74496;52.236;5.164;2024-02-21T10:15:19;101395.16;;;11.13;72.17
84316;BME280;74496;52.236;5.164;2024-02-21T10:17:47;101402.88;;;11.26;71.90
84316;BME280;74496;52.236;5.164;2024-02-21T10:20:15;101384.00;;;11.31;71.99
84316;BME280;74496;52.236;5.164;2024-02-21T10:22:42;101379.44;;;11.33;71.98
84316;BME280;74496;52.236;5.164;2024-02-21T10:25:08;101367.50;;;11.38;71.89
84316;BME280;74496;52.236;5.164;2024-02-21T10:27:36;101369.25;;;11.49;71.35
84316;BME280;74496;52.236;5.164;2024-02-21T10:30:03;101364.97;;;11.58;70.69
84316;BME280;74496;52.236;5.164;2024-02-21T10:32:30;101356.94;;;11.59;71.22
84316;BME280;74496;52.236;5.164;2024-02-21T10:35:01;101350.94;;;11.57;70.29
84316;BME280;74496;52.236;5.164;2024-02-21T10:37:31;101335.47;;;11.53;70.66
84316;BME280;74496;52.236;5.164;2024-02-21T10:39:58;101336.06;;;11.56;71.21
84316;BME280;74496;52.236;5.164;2024-02-21T10:42:29;101341.03;;;11.49;71.10
84316;BME280;74496;52.236;5.164;2024-02-21T10:45:00;101331.66;;;11.66;70.33
84316;BME280;74496;52.236;5.164;2024-02-21T10:47:31;101329.38;;;11.52;70.70
84316;BME280;74496;52.236;5.164;2024-02-21T10:50:03;101315.47;;;11.60;70.69
84316;BME280;74496;52.236;5.164;2024-02-21T10:52:43;101299.91;;;11.57;70.39
84316;BME280;74496;52.236;5.164;2024-02-21T10:55:18;101281.97;;;11.60;69.73
84316;BME280;74496;52.236;5.164;2024-02-21T10:57:46;101256.00;;;11.65;70.77
84316;BME280;74496;52.236;5.164;2024-02-21T11:00:15;101244.88;;;11.71;70.04
84316;BME280;74496;52.236;5.164;2024-02-21T11:02:44;101259.06;;;11.70;70.18
84316;BME280;74496;52.236;5.164;2024-02-21T11:05:12;101315.13;;;11.74;69.49
84316;BME280;74496;52.236;5.164;2024-02-21T11:07:41;101322.56;;;11.90;69.60
84316;BME280;74496;52.236;5.164;2024-02-21T11:10:20;101327.50;;;11.73;69.64
84316;BME280;74496;52.236;5.164;2024-02-21T11:12:48;101322.31;;;11.62;70.28
84316;BME280;74496;52.236;5.164;2024-02-21T11:15:14;101334.91;;;11.49;70.84
84316;BME280;74496;52.236;5.164;2024-02-21T11:17:41;101311.03;;;11.60;70.39
84316;BME280;74496;52.236;5.164;2024-02-21T11:20:12;101317.25;;;11.49;70.56
84316;BME280;74496;52.236;5.164;2024-02-21T11:22:42;101304.19;;;11.58;70.30
84316;BME280;74496;52.236;5.164;2024-02-21T11:25:09;101311.03;;;11.60;70.27
84316;BME280;74496;52.236;5.164;2024-02-21T11:27:37;101297.91;;;11.49;70.97
84316;BME280;74496;52.236;5.164;2024-02-21T11:30:06;101281.00;;;11.31;70.87
84316;BME280;74496;52.236;5.164;2024-02-21T11:32:32;101268.63;;;11.62;70.00
84316;BME280;74496;52.236;5.164;2024-02-21T11:35:00;101267.31;;;11.46;70.61
84316;BME280;74496;52.236;5.164;2024-02-21T11:37:29;101248.00;;;11.46;70.20
84316;BME280;74496;52.236;5.164;2024-02-21T11:40:00;101241.66;;;11.58;69.47
84316;BME280;74496;52.236;5.164;2024-02-21T11:42:29;101238.78;;;11.40;69.79
84316;BME280;74496;52.236;5.164;2024-02-21T11:44:57;101232.41;;;11.43;69.97
84316;BME280;74496;52.236;5.164;2024-02-21T11:47:24;101234.47;;;11.39;69.80
84316;BME280;74496;52.236;5.164;2024-02-21T11:49:51;101228.66;;;11.45;70.01
84316;BME280;74496;52.236;5.164;2024-02-21T11:52:19;101197.84;;;11.25;70.57
84316;BME280;74496;52.236;5.164;2024-02-21T11:54:50;101193.06;;;11.40;70.74
84316;BME280;74496;52.236;5.164;2024-02-21T11:57:19;101170.13;;;11.40;70.11
84316;BME280;74496;52.236;5.164;2024-02-21T11:59:46;101149.03;;;11.60;69.88
84316;BME280;74496;52.236;5.164;2024-02-21T12:02:14;101152.41;;;11.71;69.04
84316;BME280;74496;52.236;5.164;2024-02-21T12:04:41;101131.94;;;11.73;69.53
84316;BME280;74496;52.236;5.164;2024-02-21T12:07:08;101129.31;;;11.83;69.23
84316;BME280;74496;52.236;5.164;2024-02-21T12:09:35;101122.94;;;12.05;68.67
84316;BME280;74496;52.236;5.164;2024-02-21T12:12:03;101105.81;;;12.19;68.49
84316;BME280;74496;52.236;5.164;2024-02-21T12:14:33;101096.59;;;12.33;67.55
84316;BME280;74496;52.236;5.164;2024-02-21T12:17:01;101105.34;;;12.33;67.87
84316;BME280;74496;52.236;5.164;2024-02-21T12:19:30;101103.38;;;12.45;67.38
84316;BME280;74496;52.236;5.164;2024-02-21T12:21:56;101103.97;;;12.39;67.49
84316;BME280;74496;52.236;5.164;2024-02-21T12:24:25;101100.84;;;12.53;67.42
84316;BME280;74496;52.236;5.164;2024-02-21T12:26:53;101087.91;;;12.50;67.88
84316;BME280;74496;52.236;5.164;2024-02-21T12:29:20;101078.84;;;12.53;67.29
84316;BME280;74496;52.236;5.164;2024-02-21T12:31:49;101067.19;;;12.46;67.99
84316;BME280;74496;52.236;5.164;2024-02-21T12:34:16;101064.00;;;12.32;67.83
84316;BME280;74496;52.236;5.164;2024-02-21T12:36:44;101055.50;;;12.38;68.23
84316;BME280;74496;52.236;5.164;2024-02-21T12:39:13;101047.59;;;12.29;67.97
84316;BME280;74496;52.236;5.164;2024-02-21T12:41:40;101038.41;;;12.23;68.35
84316;BME280;74496;52.236;5.164;2024-02-21T12:44:08;101046.47;;;12.41;67.51
84316;BME280;74496;52.236;5.164;2024-02-21T12:46:36;101008.06;;;12.27;67.71
84316;BME280;74496;52.236;5.164;2024-02-21T12:49:04;101002.34;;;12.32;68.26
84316;BME280;74496;52.236;5.164;2024-02-21T12:51:33;100993.25;;;12.44;67.49
84316;BME280;74496;52.236;5.164;2024-02-21T12:54:00;100993.00;;;12.37;67.57
84316;BME280;74496;52.236;5.164;2024-02-21T12:56:28;100992.41;;;12.43;67.80
84316;BME280;74496;52.236;5.164;2024-02-21T12:58:56;100983.50;;;12.44;66.36
84316;BME280;74496;52.236;5.164;2024-02-21T13:01:24;100984.50;;;12.34;66.97
84316;BME280;74496;52.236;5.164;2024-02-21T13:03:51;100966.41;;;12.39;67.23